sensor_id;sensor_type;location;lat;lon;timestamp;P1;durP1;ratioP1;P2;durP2;ratioP2
29878;SDS011;16752;53.364;-1.488;2023-05-24T00:00:03;17.45;;;5.25;;
29878;SDS011;16752;53.364;-1.488;2023-05-24T00:02:59;21.00;;;5.13;;
29878;SDS011;16752;53.364;-1.488;2023-05-24T00:05:43;15.73;;;4.72;;
29878;SDS011;16752;53.364;-1.488;2023-05-24T00:08:32;14.95;;;4.50;;
29878;SDS011;16752;53.364;-1.488;2023-05-24T00:11:17;13.98;;;4.38;;
29878;SDS011;16752;53.364;-1.488;2023-05-24T00:14:01;15.95;;;4.63;;
29878;SDS011;16752;53.364;-1.488;2023-05-24T00:16:46;13.27;;;5.07;;
29878;SDS011;16752;53.364;-1.488;2023-05-24T00:19:32;20.77;;;5.07;;
29878;SDS011;16752;53.364;-1.488;2023-05-24T00:22:28;22.10;;;5.18;;
29878;SDS011;16752;53.364;-1.488;2023-05-24T00:25:12;19.83;;;5.72;;
29878;SDS011;16752;53.364;-1.488;2023-05-24T00:27:56;12.70;;;4.85;;
29878;SDS011;16752;53.364;-1.488;2023-05-24T00:30:40;14.70;;;4.55;;
29878;SDS011;16752;53.364;-1.488;2023-05-24T00:33:27;18.30;;;5.40;;
29878;SDS011;16752;53.364;-1.488;2023-05-24T00:36:20;12.57;;;4.80;;
29878;SDS011;16752;53.364;-1.488;2023-05-24T00:39:04;13.32;;;4.60;;
29878;SDS011;16752;53.364;-1.488;2023-05-24T00:41:52;12.95;;;4.47;;
29878;SDS011;16752;53.364;-1.488;2023-05-24T00:47:21;11.90;;;4.75;;
29878;SDS011;16752;53.364;-1.488;2023-05-24T00:50:06;14.43;;;5.55;;
29878;SDS011;16752;53.364;-1.488;2023-05-24T00:53:19;14.35;;;4.53;;
29878;SDS011;16752;53.364;-1.488;2023-05-24T01:00:04;17.15;;;5.38;;
29878;SDS011;16752;53.364;-1.488;2023-05-24T01:15:58;10.57;;;4.30;;
29878;SDS011;16752;53.364;-1.488;2023-05-24T01:29:14;17.88;;;4.32;;
29878;SDS011;16752;53.364;-1.488;2023-05-24T01:32:07;18.60;;;5.57;;
29878;SDS011;16752;53.364;-1.488;2023-05-24T01:34:52;12.15;;;5.70;;
29878;SDS011;16752;53.364;-1.488;2023-05-24T01:37:36;9.75;;;4.07;;
29878;SDS011;16752;53.364;-1.488;2023-05-24T01:40:20;16.27;;;5.28;;
29878;SDS011;16752;53.364;-1.488;2023-05-24T01:43:42;14.10;;;4.70;;
29878;SDS011;16752;53.364;-1.488;2023-05-24T01:46:36;12.45;;;4.68;;
29878;SDS011;16752;53.364;-1.488;2023-05-24T01:49:29;14.40;;;5.25;;
29878;SDS011;16752;53.364;-1.488;2023-05-24T01:52:18;10.95;;;4.85;;
29878;SDS011;16752;53.364;-1.488;2023-05-24T01:55:05;16.17;;;4.77;;
29878;SDS011;16752;53.364;-1.488;2023-05-24T01:57:51;13.93;;;5.00;;
29878;SDS011;16752;53.364;-1.488;2023-05-24T02:04:02;15.77;;;5.13;;
29878;SDS011;16752;53.364;-1.488;2023-05-24T02:06:47;11.70;;;4.32;;
29878;SDS011;16752;53.364;-1.488;2023-05-24T02:09:34;14.32;;;5.40;;
29878;SDS011;16752;53.364;-1.488;2023-05-24T02:12:18;7.55;;;4.80;;
29878;SDS011;16752;53.364;-1.488;2023-05-24T02:15:13;10.43;;;5.32;;
29878;SDS011;16752;53.364;-1.488;2023-05-24T02:17:58;9.35;;;4.63;;
29878;SDS011;16752;53.364;-1.488;2023-05-24T02:21:31;14.02;;;5.75;;
29878;SDS011;16752;53.364;-1.488;2023-05-24T02:24:23;11.95;;;5.40;;
29878;SDS011;16752;53.364;-1.488;2023-05-24T02:27:32;16.15;;;6.63;;
29878;SDS011;16752;53.364;-1.488;2023-05-24T02:30:19;14.35;;;6.50;;
29878;SDS011;16752;53.364;-1.488;2023-05-24T02:33:06;8.57;;;4.68;;
29878;SDS011;16752;53.364;-1.488;2023-05-24T02:39:09;10.75;;;4.80;;
29878;SDS011;16752;53.364;-1.488;2023-05-24T02:42:00;14.23;;;5.32;;
29878;SDS011;16752;53.364;-1.488;2023-05-24T02:49:12;12.80;;;5.18;;
29878;SDS011;16752;53.364;-1.488;2023-05-24T02:58:12;13.27;;;6.22;;
29878;SDS011;16752;53.364;-1.488;2023-05-24T03:00:51;16.58;;;6.15;;
29878;SDS011;16752;53.364;-1.488;2023-05-24T03:03:35;11.38;;;5.00;;
29878;SDS011;16752;53.364;-1.488;2023-05-24T03:06:22;12.45;;;5.82;;
29878;SDS011;16752;53.364;-1.488;2023-05-24T03:09:07;15.80;;;5.95;;
29878;SDS011;16752;53.364;-1.488;2023-05-24T03:11:51;16.20;;;5.25;;
29878;SDS011;16752;53.364;-1.488;2023-05-24T03:14:49;12.43;;;5.38;;
29878;SDS011;16752;53.364;-1.488;2023-05-24T03:17:36;12.25;;;4.88;;
29878;SDS011;16752;53.364;-1.488;2023-05-24T03:20:46;15.35;;;5.28;;
29878;SDS011;16752;53.364;-1.488;2023-05-24T03:23:31;10.80;;;5.53;;
29878;SDS011;16752;53.364;-1.488;2023-05-24T03:26:16;11.82;;;5.60;;
29878;SDS011;16752;53.364;-1.488;2023-05-24T03:29:01;12.02;;;5.63;;
29878;SDS011;16752;53.364;-1.488;2023-05-24T03:31:46;14.48;;;5.55;;
29878;SDS011;16752;53.364;-1.488;2023-05-24T03:34:34;15.55;;;6.07;;
29878;SDS011;16752;53.364;-1.488;2023-05-24T03:37:40;11.85;;;5.53;;
29878;SDS011;16752;53.364;-1.488;2023-05-24T03:40:35;14.02;;;5.35;;
29878;SDS011;16752;53.364;-1.488;2023-05-24T03:43:24;15.07;;;4.53;;
29878;SDS011;16752;53.364;-1.488;2023-05-24T03:46:25;15.05;;;5.45;;
29878;SDS011;16752;53.364;-1.488;2023-05-24T03:49:09;10.80;;;4.82;;
29878;SDS011;16752;53.364;-1.488;2023-05-24T03:51:54;12.43;;;5.07;;
29878;SDS011;16752;53.364;-1.488;2023-05-24T03:54:46;12.18;;;5.00;;
29878;SDS011;16752;53.364;-1.488;2023-05-24T04:04:58;15.27;;;5.32;;
29878;SDS011;16752;53.364;-1.488;2023-05-24T04:07:44;14.77;;;5.07;;
29878;SDS011;16752;53.364;-1.488;2023-05-24T04:10:31;9.82;;;5.25;;
29878;SDS011;16752;53.364;-1.488;2023-05-24T04:13:30;11.88;;;5.55;;
29878;SDS011;16752;53.364;-1.488;2023-05-24T04:16:18;17.38;;;6.00;;
29878;SDS011;16752;53.364;-1.488;2023-05-24T04:19:02;15.73;;;6.00;;
29878;SDS011;16752;53.364;-1.488;2023-05-24T04:21:49;13.07;;;5.75;;
29878;SDS011;16752;53.364;-1.488;2023-05-24T04:24:33;15.95;;;6.55;;
29878;SDS011;16752;53.364;-1.488;2023-05-24T04:27:23;17.98;;;6.07;;
29878;SDS011;16752;53.364;-1.488;2023-05-24T04:34:07;8.85;;;5.00;;
29878;SDS011;16752;53.364;-1.488;2023-05-24T04:36:55;15.25;;;5.47;;
29878;SDS011;16752;53.364;-1.488;2023-05-24T04:39:46;11.73;;;4.80;;
29878;SDS011;16752;53.364;-1.488;2023-05-24T04:54:47;17.27;;;5.53;;
29878;SDS011;16752;53.364;-1.488;2023-05-24T05:01:47;15.93;;;4.85;;
29878;SDS011;16752;53.364;-1.488;2023-05-24T05:04:49;14.18;;;5.22;;
29878;SDS011;16752;53.364;-1.488;2023-05-24T05:27:11;16.95;;;5.65;;
29878;SDS011;16752;53.364;-1.488;2023-05-24T05:36:17;9.98;;;5.60;;
29878;SDS011;16752;53.364;-1.488;2023-05-24T05:45:29;13.82;;;5.18;;
29878;SDS011;16752;53.364;-1.488;2023-05-24T05:51:26;10.32;;;4.60;;
29878;SDS011;16752;53.364;-1.488;2023-05-24T05:54:45;12.45;;;5.18;;
29878;SDS011;16752;53.364;-1.488;2023-05-24T05:58:03;13.95;;;5.40;;
29878;SDS011;16752;53.364;-1.488;2023-05-24T06:01:05;9.35;;;4.43;;
29878;SDS011;16752;53.364;-1.488;2023-05-24T06:13:00;8.05;;;4.18;;
29878;SDS011;16752;53.364;-1.488;2023-05-24T06:15:53;8.85;;;3.95;;
29878;SDS011;16752;53.364;-1.488;2023-05-24T06:18:38;11.65;;;4.03;;
29878;SDS011;16752;53.364;-1.488;2023-05-24T06:21:23;11.13;;;4.32;;
29878;SDS011;16752;53.364;-1.488;2023-05-24T06:24:11;8.77;;;4.07;;
29878;SDS011;16752;53.364;-1.488;2023-05-24T06:26:55;10.65;;;4.43;;
29878;SDS011;16752;53.364;-1.488;2023-05-24T06:29:40;7.88;;;4.57;;
29878;SDS011;16752;53.364;-1.488;2023-05-24T06:42:42;10.43;;;4.30;;
29878;SDS011;16752;53.364;-1.488;2023-05-24T06:45:26;9.73;;;4.28;;
29878;SDS011;16752;53.364;-1.488;2023-05-24T06:48:10;8.32;;;4.22;;
29878;SDS011;16752;53.364;-1.488;2023-05-24T06:50:55;8.23;;;3.90;;
29878;SDS011;16752;53.364;-1.488;2023-05-24T06:53:39;8.07;;;4.45;;
29878;SDS011;16752;53.364;-1.488;2023-05-24T06:56:23;9.32;;;4.38;;
29878;SDS011;16752;53.364;-1.488;2023-05-24T06:59:08;9.45;;;4.03;;
29878;SDS011;16752;53.364;-1.488;2023-05-24T07:01:51;7.13;;;3.63;;
29878;SDS011;16752;53.364;-1.488;2023-05-24T07:04:41;6.43;;;3.40;;
29878;SDS011;16752;53.364;-1.488;2023-05-24T07:07:25;6.15;;;3.65;;
29878;SDS011;16752;53.364;-1.488;2023-05-24T07:10:21;8.25;;;3.97;;
29878;SDS011;16752;53.364;-1.488;2023-05-24T07:13:05;8.75;;;3.88;;
29878;SDS011;16752;53.364;-1.488;2023-05-24T07:15:49;10.45;;;4.53;;
29878;SDS011;16752;53.364;-1.488;2023-05-24T07:18:33;13.45;;;4.03;;
29878;SDS011;16752;53.364;-1.488;2023-05-24T07:21:18;8.18;;;3.70;;
29878;SDS011;16752;53.364;-1.488;2023-05-24T07:24:09;14.93;;;4.85;;
29878;SDS011;16752;53.364;-1.488;2023-05-24T07:26:54;10.32;;;3.90;;
29878;SDS011;16752;53.364;-1.488;2023-05-24T07:29:41;10.05;;;4.22;;
29878;SDS011;16752;53.364;-1.488;2023-05-24T07:32:28;10.65;;;3.45;;
29878;SDS011;16752;53.364;-1.488;2023-05-24T07:35:46;7.63;;;3.78;;
29878;SDS011;16752;53.364;-1.488;2023-05-24T07:38:23;6.00;;;3.35;;
29878;SDS011;16752;53.364;-1.488;2023-05-24T07:41:24;9.23;;;4.30;;
29878;SDS011;16752;53.364;-1.488;2023-05-24T07:44:10;4.45;;;3.90;;
29878;SDS011;16752;53.364;-1.488;2023-05-24T07:46:54;8.75;;;4.43;;
29878;SDS011;16752;53.364;-1.488;2023-05-24T07:49:39;7.57;;;3.95;;
29878;SDS011;16752;53.364;-1.488;2023-05-24T07:52:26;11.48;;;4.57;;
29878;SDS011;16752;53.364;-1.488;2023-05-24T07:58:11;6.88;;;3.55;;
29878;SDS011;16752;53.364;-1.488;2023-05-24T08:00:55;9.98;;;3.90;;
29878;SDS011;16752;53.364;-1.488;2023-05-24T08:03:39;7.85;;;4.25;;
29878;SDS011;16752;53.364;-1.488;2023-05-24T08:06:32;7.45;;;3.28;;
29878;SDS011;16752;53.364;-1.488;2023-05-24T08:15:34;11.07;;;4.05;;
29878;SDS011;16752;53.364;-1.488;2023-05-24T08:18:36;10.05;;;4.00;;
29878;SDS011;16752;53.364;-1.488;2023-05-24T08:21:54;6.55;;;3.78;;
29878;SDS011;16752;53.364;-1.488;2023-05-24T08:24:39;11.85;;;4.97;;
29878;SDS011;16752;53.364;-1.488;2023-05-24T08:30:34;10.75;;;4.38;;
29878;SDS011;16752;53.364;-1.488;2023-05-24T08:33:20;6.07;;;4.00;;
29878;SDS011;16752;53.364;-1.488;2023-05-24T08:36:05;8.32;;;4.20;;
29878;SDS011;16752;53.364;-1.488;2023-05-24T08:38:49;8.27;;;3.53;;
29878;SDS011;16752;53.364;-1.488;2023-05-24T08:41:34;7.10;;;3.67;;
29878;SDS011;16752;53.364;-1.488;2023-05-24T08:44:20;5.68;;;2.90;;
29878;SDS011;16752;53.364;-1.488;2023-05-24T08:47:06;8.60;;;3.05;;
29878;SDS011;16752;53.364;-1.488;2023-05-24T08:49:54;10.00;;;3.58;;
29878;SDS011;16752;53.364;-1.488;2023-05-24T08:52:41;7.90;;;3.75;;
29878;SDS011;16752;53.364;-1.488;2023-05-24T08:55:26;6.60;;;3.38;;
29878;SDS011;16752;53.364;-1.488;2023-05-24T08:58:11;5.65;;;3.20;;
29878;SDS011;16752;53.364;-1.488;2023-05-24T09:00:56;11.07;;;3.70;;
29878;SDS011;16752;53.364;-1.488;2023-05-24T09:03:56;6.55;;;3.53;;
29878;SDS011;16752;53.364;-1.488;2023-05-24T09:06:42;7.30;;;3.65;;
29878;SDS011;16752;53.364;-1.488;2023-05-24T09:09:27;6.88;;;3.60;;
29878;SDS011;16752;53.364;-1.488;2023-05-24T09:12:28;10.02;;;3.53;;
29878;SDS011;16752;53.364;-1.488;2023-05-24T09:15:15;11.20;;;3.78;;
29878;SDS011;16752;53.364;-1.488;2023-05-24T09:21:55;6.05;;;3.10;;
29878;SDS011;16752;53.364;-1.488;2023-05-24T09:27:51;7.05;;;3.05;;
29878;SDS011;16752;53.364;-1.488;2023-05-24T09:30:45;8.37;;;3.50;;
29878;SDS011;16752;53.364;-1.488;2023-05-24T09:34:08;7.80;;;3.50;;
29878;SDS011;16752;53.364;-1.488;2023-05-24T09:36:56;8.32;;;3.53;;
29878;SDS011;16752;53.364;-1.488;2023-05-24T09:39:40;7.07;;;3.45;;
29878;SDS011;16752;53.364;-1.488;2023-05-24T09:42:25;11.40;;;3.83;;
29878;SDS011;16752;53.364;-1.488;2023-05-24T09:45:13;9.50;;;4.00;;
29878;SDS011;16752;53.364;-1.488;2023-05-24T09:48:02;8.50;;;3.10;;
29878;SDS011;16752;53.364;-1.488;2023-05-24T09:53:59;8.68;;;3.80;;
29878;SDS011;16752;53.364;-1.488;2023-05-24T09:56:46;7.70;;;4.00;;
29878;SDS011;16752;53.364;-1.488;2023-05-24T09:59:32;6.95;;;3.58;;
29878;SDS011;16752;53.364;-1.488;2023-05-24T10:02:19;5.80;;;3.40;;
29878;SDS011;16752;53.364;-1.488;2023-05-24T10:05:05;8.88;;;3.20;;
29878;SDS011;16752;53.364;-1.488;2023-05-24T10:07:50;8.93;;;4.32;;
29878;SDS011;16752;53.364;-1.488;2023-05-24T10:10:35;6.70;;;3.70;;
29878;SDS011;16752;53.364;-1.488;2023-05-24T10:13:19;6.85;;;3.33;;
29878;SDS011;16752;53.364;-1.488;2023-05-24T10:16:09;7.35;;;4.05;;
29878;SDS011;16752;53.364;-1.488;2023-05-24T10:21:33;8.68;;;3.88;;
29878;SDS011;16752;53.364;-1.488;2023-05-24T10:24:22;11.63;;;4.38;;
29878;SDS011;16752;53.364;-1.488;2023-05-24T10:33:08;7.18;;;3.55;;
29878;SDS011;16752;53.364;-1.488;2023-05-24T10:35:55;11.55;;;4.15;;
29878;SDS011;16752;53.364;-1.488;2023-05-24T10:38:40;6.32;;;3.88;;
29878;SDS011;16752;53.364;-1.488;2023-05-24T10:41:26;8.65;;;3.40;;
29878;SDS011;16752;53.364;-1.488;2023-05-24T10:44:22;7.07;;;3.35;;
29878;SDS011;16752;53.364;-1.488;2023-05-24T10:47:19;8.15;;;4.03;;
29878;SDS011;16752;53.364;-1.488;2023-05-24T10:50:20;14.35;;;3.97;;
29878;SDS011;16752;53.364;-1.488;2023-05-24T10:55:59;7.37;;;3.67;;
29878;SDS011;16752;53.364;-1.488;2023-05-24T11:01:42;7.53;;;4.43;;
29878;SDS011;16752;53.364;-1.488;2023-05-24T11:04:37;10.50;;;5.15;;
29878;SDS011;16752;53.364;-1.488;2023-05-24T11:07:29;14.73;;;4.25;;
29878;SDS011;16752;53.364;-1.488;2023-05-24T11:10:15;12.45;;;4.75;;
29878;SDS011;16752;53.364;-1.488;2023-05-24T11:13:01;7.43;;;4.32;;
29878;SDS011;16752;53.364;-1.488;2023-05-24T11:15:49;6.18;;;3.55;;
29878;SDS011;16752;53.364;-1.488;2023-05-24T11:18:35;11.52;;;4.72;;
29878;SDS011;16752;53.364;-1.488;2023-05-24T11:24:12;12.30;;;3.90;;
29878;SDS011;16752;53.364;-1.488;2023-05-24T11:27:06;8.52;;;3.60;;
29878;SDS011;16752;53.364;-1.488;2023-05-24T11:29:50;7.45;;;4.00;;
29878;SDS011;16752;53.364;-1.488;2023-05-24T11:32:35;9.75;;;3.80;;
29878;SDS011;16752;53.364;-1.488;2023-05-24T11:35:29;8.70;;;4.13;;
29878;SDS011;16752;53.364;-1.488;2023-05-24T11:38:14;8.32;;;3.90;;
29878;SDS011;16752;53.364;-1.488;2023-05-24T11:41:02;8.77;;;4.10;;
29878;SDS011;16752;53.364;-1.488;2023-05-24T11:43:50;8.20;;;3.85;;
29878;SDS011;16752;53.364;-1.488;2023-05-24T11:46:38;8.88;;;3.03;;
29878;SDS011;16752;53.364;-1.488;2023-05-24T11:49:23;9.85;;;3.85;;
29878;SDS011;16752;53.364;-1.488;2023-05-24T11:52:07;6.60;;;3.65;;
29878;SDS011;16752;53.364;-1.488;2023-05-24T11:54:51;8.15;;;3.30;;
29878;SDS011;16752;53.364;-1.488;2023-05-24T11:57:37;12.68;;;4.50;;
29878;SDS011;16752;53.364;-1.488;2023-05-24T12:00:26;11.38;;;4.05;;
29878;SDS011;16752;53.364;-1.488;2023-05-24T12:03:11;12.05;;;4.30;;
29878;SDS011;16752;53.364;-1.488;2023-05-24T12:05:55;9.35;;;4.15;;
29878;SDS011;16752;53.364;-1.488;2023-05-24T12:08:40;13.27;;;4.90;;
29878;SDS011;16752;53.364;-1.488;2023-05-24T12:11:24;11.05;;;4.35;;
29878;SDS011;16752;53.364;-1.488;2023-05-24T12:17:13;11.30;;;4.63;;
29878;SDS011;16752;53.364;-1.488;2023-05-24T12:20:01;11.43;;;4.75;;
29878;SDS011;16752;53.364;-1.488;2023-05-24T12:22:47;12.35;;;4.85;;
29878;SDS011;16752;53.364;-1.488;2023-05-24T12:25:39;8.27;;;4.30;;
29878;SDS011;16752;53.364;-1.488;2023-05-24T12:28:24;9.00;;;5.47;;
29878;SDS011;16752;53.364;-1.488;2023-05-24T12:31:08;12.82;;;4.57;;
29878;SDS011;16752;53.364;-1.488;2023-05-24T12:33:52;12.02;;;4.32;;
29878;SDS011;16752;53.364;-1.488;2023-05-24T12:36:56;14.38;;;5.05;;
29878;SDS011;16752;53.364;-1.488;2023-05-24T12:39:42;13.13;;;4.82;;
29878;SDS011;16752;53.364;-1.488;2023-05-24T12:42:36;10.20;;;4.45;;
29878;SDS011;16752;53.364;-1.488;2023-05-24T12:45:21;16.05;;;5.43;;
29878;SDS011;16752;53.364;-1.488;2023-05-24T12:48:10;10.82;;;4.75;;
29878;SDS011;16752;53.364;-1.488;2023-05-24T12:50:55;13.77;;;5.57;;
29878;SDS011;16752;53.364;-1.488;2023-05-24T12:53:39;8.63;;;4.50;;
29878;SDS011;16752;53.364;-1.488;2023-05-24T12:56:24;17.33;;;5.63;;
29878;SDS011;16752;53.364;-1.488;2023-05-24T12:59:11;11.18;;;5.00;;
29878;SDS011;16752;53.364;-1.488;2023-05-24T13:01:56;14.27;;;5.22;;
29878;SDS011;16752;53.364;-1.488;2023-05-24T13:04:40;11.25;;;4.93;;
29878;SDS011;16752;53.364;-1.488;2023-05-24T13:07:24;15.15;;;5.22;;
29878;SDS011;16752;53.364;-1.488;2023-05-24T13:10:08;11.70;;;5.18;;
29878;SDS011;16752;53.364;-1.488;2023-05-24T13:16:03;10.10;;;4.38;;
29878;SDS011;16752;53.364;-1.488;2023-05-24T13:18:53;9.95;;;4.80;;
29878;SDS011;16752;53.364;-1.488;2023-05-24T13:21:47;9.23;;;4.88;;
29878;SDS011;16752;53.364;-1.488;2023-05-24T13:27:47;13.55;;;5.60;;
29878;SDS011;16752;53.364;-1.488;2023-05-24T13:30:32;14.82;;;5.43;;
29878;SDS011;16752;53.364;-1.488;2023-05-24T13:33:19;12.15;;;5.50;;
29878;SDS011;16752;53.364;-1.488;2023-05-24T13:36:03;9.75;;;4.90;;
29878;SDS011;16752;53.364;-1.488;2023-05-24T13:38:53;14.73;;;6.22;;
29878;SDS011;16752;53.364;-1.488;2023-05-24T13:41:40;12.27;;;5.80;;
29878;SDS011;16752;53.364;-1.488;2023-05-24T13:44:28;10.90;;;5.10;;
29878;SDS011;16752;53.364;-1.488;2023-05-24T13:47:16;13.57;;;5.28;;
29878;SDS011;16752;53.364;-1.488;2023-05-24T13:50:02;19.95;;;6.40;;
29878;SDS011;16752;53.364;-1.488;2023-05-24T13:52:46;16.67;;;5.65;;
29878;SDS011;16752;53.364;-1.488;2023-05-24T13:55:30;13.48;;;4.82;;
29878;SDS011;16752;53.364;-1.488;2023-05-24T13:58:16;14.10;;;5.45;;
29878;SDS011;16752;53.364;-1.488;2023-05-24T14:01:02;12.45;;;4.93;;
29878;SDS011;16752;53.364;-1.488;2023-05-24T14:03:47;13.30;;;5.40;;
29878;SDS011;16752;53.364;-1.488;2023-05-24T14:06:31;11.48;;;5.35;;
29878;SDS011;16752;53.364;-1.488;2023-05-24T14:09:16;15.90;;;5.95;;
29878;SDS011;16752;53.364;-1.488;2023-05-24T14:12:00;14.13;;;5.68;;
29878;SDS011;16752;53.364;-1.488;2023-05-24T14:14:48;9.55;;;5.07;;
29878;SDS011;16752;53.364;-1.488;2023-05-24T14:20:28;15.13;;;4.97;;
29878;SDS011;16752;53.364;-1.488;2023-05-24T14:23:12;12.65;;;4.97;;
29878;SDS011;16752;53.364;-1.488;2023-05-24T14:26:03;12.07;;;5.15;;
29878;SDS011;16752;53.364;-1.488;2023-05-24T14:28:50;10.90;;;5.03;;
29878;SDS011;16752;53.364;-1.488;2023-05-24T14:31:34;15.82;;;5.65;;
29878;SDS011;16752;53.364;-1.488;2023-05-24T14:34:24;11.98;;;5.68;;
29878;SDS011;16752;53.364;-1.488;2023-05-24T14:37:08;15.32;;;5.60;;
29878;SDS011;16752;53.364;-1.488;2023-05-24T14:39:55;11.57;;;5.18;;
29878;SDS011;16752;53.364;-1.488;2023-05-24T14:45:25;13.45;;;4.63;;
29878;SDS011;16752;53.364;-1.488;2023-05-24T14:48:15;13.20;;;4.93;;
29878;SDS011;16752;53.364;-1.488;2023-05-24T14:50:59;10.00;;;5.20;;
29878;SDS011;16752;53.364;-1.488;2023-05-24T14:53:43;9.15;;;4.95;;
29878;SDS011;16752;53.364;-1.488;2023-05-24T14:56:31;11.45;;;4.53;;
29878;SDS011;16752;53.364;-1.488;2023-05-24T14:59:16;13.40;;;5.78;;
29878;SDS011;16752;53.364;-1.488;2023-05-24T15:02:00;12.98;;;5.22;;
29878;SDS011;16752;53.364;-1.488;2023-05-24T15:04:44;10.15;;;4.60;;
29878;SDS011;16752;53.364;-1.488;2023-05-24T15:07:28;18.17;;;4.90;;
29878;SDS011;16752;53.364;-1.488;2023-05-24T15:10:13;9.27;;;4.38;;
29878;SDS011;16752;53.364;-1.488;2023-05-24T15:12:57;13.43;;;4.68;;
29878;SDS011;16752;53.364;-1.488;2023-05-24T15:15:41;11.07;;;4.80;;
29878;SDS011;16752;53.364;-1.488;2023-05-24T15:18:26;8.80;;;4.28;;
29878;SDS011;16752;53.364;-1.488;2023-05-24T15:21:13;17.75;;;4.82;;
29878;SDS011;16752;53.364;-1.488;2023-05-24T15:23:57;10.52;;;4.82;;
29878;SDS011;16752;53.364;-1.488;2023-05-24T15:26:41;12.70;;;5.43;;
29878;SDS011;16752;53.364;-1.488;2023-05-24T15:29:25;10.15;;;4.68;;
29878;SDS011;16752;53.364;-1.488;2023-05-24T15:32:10;12.38;;;5.05;;
29878;SDS011;16752;53.364;-1.488;2023-05-24T15:34:54;17.70;;;5.15;;
29878;SDS011;16752;53.364;-1.488;2023-05-24T15:37:38;14.90;;;5.97;;
29878;SDS011;16752;53.364;-1.488;2023-05-24T15:40:46;10.70;;;5.65;;
29878;SDS011;16752;53.364;-1.488;2023-05-24T15:43:38;11.40;;;4.80;;
29878;SDS011;16752;53.364;-1.488;2023-05-24T15:46:22;9.88;;;4.90;;
29878;SDS011;16752;53.364;-1.488;2023-05-24T15:49:06;10.88;;;4.47;;
29878;SDS011;16752;53.364;-1.488;2023-05-24T15:51:59;8.75;;;5.15;;
29878;SDS011;16752;53.364;-1.488;2023-05-24T15:54:43;15.30;;;5.68;;
29878;SDS011;16752;53.364;-1.488;2023-05-24T15:57:27;11.77;;;5.47;;
29878;SDS011;16752;53.364;-1.488;2023-05-24T16:00:11;16.92;;;8.60;;
29878;SDS011;16752;53.364;-1.488;2023-05-24T16:02:55;11.18;;;5.03;;
29878;SDS011;16752;53.364;-1.488;2023-05-24T16:05:46;14.48;;;4.88;;
29878;SDS011;16752;53.364;-1.488;2023-05-24T16:08:34;12.55;;;5.60;;
29878;SDS011;16752;53.364;-1.488;2023-05-24T16:11:18;11.23;;;4.72;;
29878;SDS011;16752;53.364;-1.488;2023-05-24T16:14:02;16.25;;;6.00;;
29878;SDS011;16752;53.364;-1.488;2023-05-24T16:16:46;13.20;;;4.85;;
29878;SDS011;16752;53.364;-1.488;2023-05-24T16:19:31;14.23;;;5.88;;
29878;SDS011;16752;53.364;-1.488;2023-05-24T16:22:14;15.20;;;7.13;;
29878;SDS011;16752;53.364;-1.488;2023-05-24T16:24:59;16.40;;;5.78;;
29878;SDS011;16752;53.364;-1.488;2023-05-24T16:27:49;12.38;;;5.63;;
29878;SDS011;16752;53.364;-1.488;2023-05-24T16:36:35;16.38;;;5.65;;
29878;SDS011;16752;53.364;-1.488;2023-05-24T16:39:19;18.58;;;5.20;;
29878;SDS011;16752;53.364;-1.488;2023-05-24T16:42:04;13.40;;;5.13;;
29878;SDS011;16752;53.364;-1.488;2023-05-24T16:44:49;16.23;;;5.32;;
29878;SDS011;16752;53.364;-1.488;2023-05-24T16:47:34;14.38;;;5.85;;
29878;SDS011;16752;53.364;-1.488;2023-05-24T16:50:18;17.35;;;5.63;;
29878;SDS011;16752;53.364;-1.488;2023-05-24T16:53:02;12.93;;;4.93;;
29878;SDS011;16752;53.364;-1.488;2023-05-24T16:55:46;19.58;;;6.00;;
29878;SDS011;16752;53.364;-1.488;2023-05-24T16:58:36;13.00;;;6.00;;
29878;SDS011;16752;53.364;-1.488;2023-05-24T17:01:20;20.20;;;6.32;;
29878;SDS011;16752;53.364;-1.488;2023-05-24T17:04:29;15.60;;;5.43;;
29878;SDS011;16752;53.364;-1.488;2023-05-24T17:07:13;16.35;;;6.25;;
29878;SDS011;16752;53.364;-1.488;2023-05-24T17:09:57;20.17;;;6.30;;
29878;SDS011;16752;53.364;-1.488;2023-05-24T17:12:41;16.83;;;6.40;;
29878;SDS011;16752;53.364;-1.488;2023-05-24T17:15:26;22.73;;;6.32;;
29878;SDS011;16752;53.364;-1.488;2023-05-24T17:21:22;14.55;;;6.10;;
29878;SDS011;16752;53.364;-1.488;2023-05-24T17:24:12;16.10;;;5.38;;
29878;SDS011;16752;53.364;-1.488;2023-05-24T17:26:55;16.67;;;5.70;;
29878;SDS011;16752;53.364;-1.488;2023-05-24T17:29:39;19.08;;;6.43;;
29878;SDS011;16752;53.364;-1.488;2023-05-24T17:32:23;18.48;;;6.15;;
29878;SDS011;16752;53.364;-1.488;2023-05-24T17:35:08;21.67;;;6.68;;
29878;SDS011;16752;53.364;-1.488;2023-05-24T17:37:55;19.48;;;5.90;;
29878;SDS011;16752;53.364;-1.488;2023-05-24T17:40:40;19.05;;;6.28;;
29878;SDS011;16752;53.364;-1.488;2023-05-24T17:43:24;18.60;;;5.32;;
29878;SDS011;16752;53.364;-1.488;2023-05-24T17:46:17;17.85;;;6.53;;
29878;SDS011;16752;53.364;-1.488;2023-05-24T17:49:01;22.42;;;6.25;;
29878;SDS011;16752;53.364;-1.488;2023-05-24T17:51:45;19.83;;;6.72;;
29878;SDS011;16752;53.364;-1.488;2023-05-24T17:54:29;18.70;;;6.90;;
29878;SDS011;16752;53.364;-1.488;2023-05-24T17:57:13;18.67;;;6.47;;
29878;SDS011;16752;53.364;-1.488;2023-05-24T17:59:57;13.55;;;5.45;;
29878;SDS011;16752;53.364;-1.488;2023-05-24T18:02:41;14.75;;;5.72;;
29878;SDS011;16752;53.364;-1.488;2023-05-24T18:05:25;19.60;;;6.93;;
29878;SDS011;16752;53.364;-1.488;2023-05-24T18:08:09;23.80;;;6.60;;
29878;SDS011;16752;53.364;-1.488;2023-05-24T18:10:54;15.80;;;5.88;;
29878;SDS011;16752;53.364;-1.488;2023-05-24T18:13:39;21.20;;;6.38;;
29878;SDS011;16752;53.364;-1.488;2023-05-24T18:16:24;20.88;;;6.47;;
29878;SDS011;16752;53.364;-1.488;2023-05-24T18:19:09;17.75;;;6.53;;
29878;SDS011;16752;53.364;-1.488;2023-05-24T18:22:03;14.82;;;6.22;;
29878;SDS011;16752;53.364;-1.488;2023-05-24T18:24:47;16.88;;;5.80;;
29878;SDS011;16752;53.364;-1.488;2023-05-24T18:27:34;21.10;;;5.80;;
29878;SDS011;16752;53.364;-1.488;2023-05-24T18:30:18;23.85;;;6.82;;
29878;SDS011;16752;53.364;-1.488;2023-05-24T18:33:02;19.80;;;6.60;;
29878;SDS011;16752;53.364;-1.488;2023-05-24T18:35:46;21.27;;;7.45;;
29878;SDS011;16752;53.364;-1.488;2023-05-24T18:38:44;21.55;;;6.15;;
29878;SDS011;16752;53.364;-1.488;2023-05-24T18:41:29;20.23;;;5.55;;
29878;SDS011;16752;53.364;-1.488;2023-05-24T18:44:14;22.23;;;6.07;;
29878;SDS011;16752;53.364;-1.488;2023-05-24T18:46:57;21.63;;;6.03;;
29878;SDS011;16752;53.364;-1.488;2023-05-24T18:49:42;17.23;;;5.70;;
29878;SDS011;16752;53.364;-1.488;2023-05-24T18:52:27;17.83;;;6.40;;
29878;SDS011;16752;53.364;-1.488;2023-05-24T18:55:11;26.77;;;7.40;;
29878;SDS011;16752;53.364;-1.488;2023-05-24T18:57:55;16.05;;;7.22;;
29878;SDS011;16752;53.364;-1.488;2023-05-24T19:00:43;18.90;;;6.60;;
29878;SDS011;16752;53.364;-1.488;2023-05-24T19:03:27;17.50;;;5.85;;
29878;SDS011;16752;53.364;-1.488;2023-05-24T19:06:11;21.55;;;5.93;;
29878;SDS011;16752;53.364;-1.488;2023-05-24T19:08:59;16.40;;;5.50;;
29878;SDS011;16752;53.364;-1.488;2023-05-24T19:11:43;15.23;;;6.28;;
29878;SDS011;16752;53.364;-1.488;2023-05-24T19:14:27;12.98;;;5.57;;
29878;SDS011;16752;53.364;-1.488;2023-05-24T19:17:13;20.50;;;7.03;;
29878;SDS011;16752;53.364;-1.488;2023-05-24T19:19:57;26.48;;;6.63;;
29878;SDS011;16752;53.364;-1.488;2023-05-24T19:22:41;19.17;;;6.25;;
29878;SDS011;16752;53.364;-1.488;2023-05-24T19:25:25;24.88;;;6.45;;
29878;SDS011;16752;53.364;-1.488;2023-05-24T19:28:09;20.23;;;5.53;;
29878;SDS011;16752;53.364;-1.488;2023-05-24T19:30:53;15.57;;;5.97;;
29878;SDS011;16752;53.364;-1.488;2023-05-24T19:33:37;17.88;;;6.22;;
29878;SDS011;16752;53.364;-1.488;2023-05-24T19:36:24;15.82;;;5.93;;
29878;SDS011;16752;53.364;-1.488;2023-05-24T19:39:08;21.60;;;5.70;;